createdAt,value
2022-07-25T00:02:34.192Z,19.50
2022-07-25T00:05:23.066Z,19.50
2022-07-25T00:08:12.851Z,19.50
2022-07-25T00:11:01.492Z,19.50
2022-07-25T00:13:50.021Z,19.50
2022-07-25T00:16:38.603Z,19.50
2022-07-25T00:19:27.152Z,19.50
2022-07-25T00:22:15.581Z,19.60
2022-07-25T00:25:06.102Z,19.60
2022-07-25T00:27:54.670Z,19.60
2022-07-25T00:30:43.242Z,19.50
2022-07-25T00:33:31.808Z,19.50
2022-07-25T00:36:20.270Z,19.50
2022-07-25T00:39:08.795Z,19.50
2022-07-25T00:41:58.765Z,19.40
2022-07-25T00:44:47.313Z,19.30
2022-07-25T00:47:35.860Z,19.30
2022-07-25T00:50:24.731Z,19.40
2022-07-25T00:53:13.368Z,19.20
2022-07-25T00:56:02.408Z,19.10
2022-07-25T00:58:52.335Z,19.10
2022-07-25T01:01:42.732Z,19.10
2022-07-25T01:04:31.741Z,19.20
2022-07-25T01:07:20.486Z,19.10
2022-07-25T01:10:10.697Z,19.00
2022-07-25T01:12:59.207Z,19.10
2022-07-25T01:15:52.458Z,19.10
2022-07-25T01:18:41.475Z,19.10
2022-07-25T01:21:31.654Z,19.10
2022-07-25T01:24:20.174Z,19.20
2022-07-25T01:27:17.447Z,19.10
2022-07-25T01:30:07.844Z,19.10
2022-07-25T01:32:56.444Z,19.00
2022-07-25T01:35:44.986Z,19.00
2022-07-25T01:38:34.952Z,19.00
2022-07-25T01:41:23.607Z,18.90
2022-07-25T01:44:12.168Z,18.90
2022-07-25T01:47:00.625Z,18.90
2022-07-25T01:49:49.377Z,19.00
2022-07-25T01:52:38.026Z,18.80
2022-07-25T01:55:28.097Z,18.80
2022-07-25T01:58:18.786Z,18.80
2022-07-25T02:01:08.495Z,18.70
2022-07-25T02:03:57.096Z,18.70
2022-07-25T02:06:45.811Z,18.70
2022-07-25T02:09:34.580Z,18.60
2022-07-25T02:12:24.424Z,18.60
2022-07-25T02:15:12.940Z,18.60
2022-07-25T02:18:01.490Z,18.60
2022-07-25T02:20:50.068Z,18.50
2022-07-25T02:23:39.094Z,18.50
2022-07-25T02:26:27.634Z,18.60
2022-07-25T02:29:17.515Z,18.50
2022-07-25T02:32:10.728Z,18.50
2022-07-25T02:34:59.345Z,18.40
2022-07-25T02:37:48.218Z,18.40
2022-07-25T02:40:36.809Z,18.40
2022-07-25T02:43:25.269Z,18.30
2022-07-25T02:46:15.514Z,18.30
2022-07-25T02:49:05.125Z,18.30
2022-07-25T02:51:53.719Z,18.20
2022-07-25T02:54:42.272Z,18.30
2022-07-25T02:57:30.756Z,18.20
2022-07-25T03:00:19.510Z,18.20
2022-07-25T03:03:09.499Z,18.10
2022-07-25T03:05:59.233Z,18.20
2022-07-25T03:08:47.843Z,18.20
2022-07-25T03:11:36.382Z,18.20
2022-07-25T03:14:25.040Z,18.00
2022-07-25T03:17:13.607Z,18.10
2022-07-25T03:20:03.669Z,18.10
2022-07-25T03:22:52.354Z,18.20
2022-07-25T03:25:40.851Z,18.10
2022-07-25T03:28:29.415Z,18.10
2022-07-25T03:31:18.408Z,18.20
2022-07-25T03:34:07.558Z,18.30
2022-07-25T03:36:57.674Z,18.40
2022-07-25T03:39:46.114Z,18.50
2022-07-25T03:42:37.772Z,18.50
2022-07-25T03:45:26.786Z,18.40
2022-07-25T03:48:15.274Z,18.50
2022-07-25T03:51:07.378Z,18.40
2022-07-25T03:54:03.853Z,18.40
2022-07-25T03:56:52.831Z,18.50
2022-07-25T03:59:41.386Z,18.50
2022-07-25T04:02:30.105Z,18.50
2022-07-25T04:05:19.826Z,18.60
2022-07-25T04:08:08.354Z,18.60
2022-07-25T04:10:58.268Z,18.80
2022-07-25T04:13:46.832Z,18.90
2022-07-25T04:16:35.844Z,19.00
2022-07-25T04:19:26.666Z,19.10
2022-07-25T04:22:17.562Z,19.20
2022-07-25T04:25:07.169Z,19.20
2022-07-25T04:27:57.067Z,19.30
2022-07-25T04:30:46.595Z,19.30
2022-07-25T04:33:37.455Z,19.40
2022-07-25T04:36:26.792Z,19.40
2022-07-25T04:39:15.311Z,19.60
2022-07-25T04:42:03.787Z,19.60
2022-07-25T04:44:54.183Z,19.70
2022-07-25T04:47:42.923Z,19.90
2022-07-25T04:50:31.902Z,19.80
2022-07-25T04:53:20.438Z,19.80
2022-07-25T04:56:09.446Z,19.90
2022-07-25T04:59:03.126Z,19.90
2022-07-25T05:01:55.997Z,20.00
2022-07-25T05:04:45.557Z,20.00
2022-07-25T05:07:34.189Z,20.10
2022-07-25T05:10:22.901Z,20.20
2022-07-25T05:13:11.683Z,20.20
2022-07-25T05:16:01.843Z,20.40
2022-07-25T05:18:54.954Z,20.50
2022-07-25T05:21:43.434Z,20.60
2022-07-25T05:24:34.487Z,20.60
2022-07-25T05:27:27.128Z,20.70
2022-07-25T05:30:16.500Z,20.90
2022-07-25T05:33:05.460Z,21.20
2022-07-25T05:35:55.364Z,21.80
2022-07-25T05:38:43.912Z,22.60
2022-07-25T05:41:32.646Z,21.90
2022-07-25T05:44:21.231Z,21.90
2022-07-25T05:47:11.280Z,21.90
2022-07-25T05:49:59.841Z,21.60
2022-07-25T05:52:49.735Z,21.50
2022-07-25T05:55:40.238Z,21.60
2022-07-25T05:58:30.267Z,21.60
2022-07-25T06:01:23.038Z,21.60
2022-07-25T06:04:11.603Z,22.10
2022-07-25T06:07:00.148Z,23.20
2022-07-25T06:09:49.930Z,24.10
2022-07-25T06:12:38.502Z,23.50
2022-07-25T06:15:28.958Z,22.90
2022-07-25T06:18:17.516Z,22.70
2022-07-25T06:21:06.798Z,22.50
2022-07-25T06:23:55.337Z,22.30
2022-07-25T06:26:45.579Z,22.30
2022-07-25T06:29:34.083Z,22.20
2022-07-25T06:32:22.821Z,22.30
2022-07-25T06:35:11.831Z,22.30
2022-07-25T06:38:00.381Z,22.30
2022-07-25T06:40:49.010Z,22.10
2022-07-25T06:43:38.802Z,22.20
2022-07-25T06:46:31.158Z,22.50
2022-07-25T06:49:19.806Z,22.70
2022-07-25T06:52:08.598Z,22.50
2022-07-25T06:54:57.197Z,22.50
2022-07-25T06:57:45.738Z,22.60
2022-07-25T07:00:36.164Z,22.80
2022-07-25T07:03:24.805Z,22.80
2022-07-25T07:06:13.392Z,23.00
2022-07-25T07:09:04.900Z,23.10
2022-07-25T07:11:53.420Z,23.20
2022-07-25T07:14:43.802Z,23.30
2022-07-25T07:17:33.665Z,23.40
2022-07-25T07:20:22.367Z,23.60
2022-07-25T07:23:11.351Z,23.70
2022-07-25T07:26:05.389Z,23.70
2022-07-25T07:28:56.134Z,23.70
2022-07-25T07:31:44.700Z,23.70
2022-07-25T07:34:34.991Z,23.80
2022-07-25T07:37:23.742Z,24.10
2022-07-25T07:40:17.594Z,24.40
2022-07-25T07:43:11.090Z,24.50
2022-07-25T07:46:01.175Z,24.80
2022-07-25T07:48:50.222Z,25.40
2022-07-25T07:51:40.226Z,25.80
2022-07-25T07:54:46.671Z,26.40
2022-07-25T07:57:35.158Z,27.20
2022-07-25T08:00:24.778Z,27.20
2022-07-25T08:03:13.596Z,27.60
2022-07-25T08:06:02.232Z,28.30
2022-07-25T08:08:52.410Z,27.30
2022-07-25T08:11:40.900Z,26.20
2022-07-25T08:14:29.447Z,26.30
2022-07-25T08:17:17.975Z,27.30
2022-07-25T08:20:27.871Z,27.80
2022-07-25T08:23:17.957Z,27.90
2022-07-25T08:26:11.031Z,28.20
2022-07-25T08:29:17.576Z,28.50
2022-07-25T08:32:07.385Z,28.80
2022-07-25T08:34:55.927Z,29.30
2022-07-25T08:37:44.749Z,29.00
2022-07-25T08:40:34.430Z,29.80
2022-07-25T08:43:24.847Z,29.80
2022-07-25T08:46:16.242Z,30.30
2022-07-25T08:49:04.800Z,30.40
2022-07-25T08:51:53.527Z,31.10
2022-07-25T08:54:42.670Z,31.20
2022-07-25T08:57:31.550Z,31.30
2022-07-25T09:00:24.735Z,31.80
2022-07-25T09:03:13.473Z,32.10
2022-07-25T09:06:05.624Z,32.30
2022-07-25T09:08:56.419Z,33.00
2022-07-25T09:11:48.192Z,34.10
2022-07-25T09:14:43.873Z,34.90
2022-07-25T09:17:36.918Z,32.20
2022-07-25T09:20:37.357Z,32.40
2022-07-25T09:23:31.700Z,34.70
2022-07-25T09:26:20.292Z,35.90
2022-07-25T09:29:14.557Z,36.80
2022-07-25T09:32:16.275Z,36.60
2022-07-25T09:35:07.057Z,36.80
2022-07-25T09:37:55.672Z,37.40
2022-07-25T09:40:55.511Z,37.90
2022-07-25T09:43:45.653Z,37.80
2022-07-25T09:46:34.695Z,37.50
2022-07-25T09:49:23.380Z,37.90
2022-07-25T09:52:13.565Z,37.50
2022-07-25T09:55:05.170Z,36.80
2022-07-25T09:57:53.830Z,36.60
2022-07-25T10:00:43.577Z,37.20
2022-07-25T10:03:44.915Z,38.00
2022-07-25T10:06:40.595Z,37.50
2022-07-25T10:09:30.466Z,37.50
2022-07-25T10:12:22.499Z,37.10
2022-07-25T10:15:12.946Z,36.80
2022-07-25T10:18:06.994Z,35.90
2022-07-25T10:21:24.490Z,35.40
2022-07-25T10:24:14.819Z,35.20
2022-07-25T10:27:09.712Z,35.70
2022-07-25T10:29:58.593Z,36.30
2022-07-25T10:32:51.605Z,37.30
2022-07-25T10:35:40.876Z,37.80
2022-07-25T10:38:33.964Z,38.30
2022-07-25T10:41:27.394Z,37.50
2022-07-25T10:44:21.518Z,37.90
2022-07-25T10:47:11.431Z,38.40
2022-07-25T10:53:12.040Z,37.50
2022-07-25T10:56:06.631Z,38.10
2022-07-25T10:58:57.362Z,38.40
2022-07-25T11:01:52.485Z,38.10
2022-07-25T11:04:41.255Z,38.90
2022-07-25T11:07:36.105Z,39.30
2022-07-25T11:10:29.065Z,39.60
2022-07-25T11:16:07.897Z,39.30
2022-07-25T11:18:57.873Z,39.30
2022-07-25T11:21:47.793Z,39.30
2022-07-25T11:24:38.879Z,39.60
2022-07-25T11:27:29.506Z,39.00
2022-07-25T11:30:20.235Z,39.70
2022-07-25T11:33:09.299Z,39.90
2022-07-25T11:35:59.949Z,40.00
2022-07-25T11:38:50.301Z,39.20
2022-07-25T11:41:39.550Z,39.10
2022-07-25T11:44:39.643Z,39.50
2022-07-25T11:47:34.593Z,39.40
2022-07-25T11:50:34.057Z,39.80
2022-07-25T11:53:26.067Z,40.00
2022-07-25T11:56:41.231Z,40.20
2022-07-25T11:59:29.102Z,40.80
2022-07-25T12:02:23.833Z,40.90
2022-07-25T12:05:14.972Z,41.60
2022-07-25T12:08:11.350Z,42.00
2022-07-25T12:11:01.447Z,42.10
2022-07-25T12:13:50.875Z,42.20
2022-07-25T12:16:40.747Z,42.20
2022-07-25T12:19:29.495Z,42.50
2022-07-25T12:22:17.984Z,42.10
2022-07-25T12:25:07.647Z,41.80
2022-07-25T12:28:01.818Z,41.50
2022-07-25T12:30:56.357Z,41.00
2022-07-25T12:33:45.550Z,40.30
2022-07-25T12:36:35.681Z,40.20
2022-07-25T12:39:28.030Z,40.80
2022-07-25T12:42:16.593Z,40.00
2022-07-25T12:45:08.516Z,38.70
2022-07-25T12:47:57.496Z,36.50
2022-07-25T12:50:46.651Z,34.90
2022-07-25T12:53:38.963Z,34.00
2022-07-25T12:56:30.318Z,33.20
2022-07-25T12:59:18.861Z,32.50
2022-07-25T13:02:10.384Z,32.50
2022-07-25T13:05:02.754Z,32.30
2022-07-25T13:07:52.042Z,32.60
2022-07-25T13:10:40.612Z,32.20
2022-07-25T13:13:29.378Z,31.70
2022-07-25T13:16:18.052Z,31.30
2022-07-25T13:19:09.026Z,31.30
2022-07-25T13:21:57.881Z,31.60
2022-07-25T13:24:46.623Z,31.50
2022-07-25T13:27:35.236Z,31.40
2022-07-25T13:30:23.985Z,31.40
2022-07-25T13:33:13.701Z,31.20
2022-07-25T13:36:03.550Z,30.60
2022-07-25T13:38:52.020Z,30.80
2022-07-25T13:41:40.561Z,30.70
2022-07-25T13:44:32.773Z,30.60
2022-07-25T13:47:22.342Z,30.60
2022-07-25T13:50:13.159Z,30.30
2022-07-25T13:53:07.061Z,30.10
2022-07-25T13:55:55.669Z,29.80
2022-07-25T13:58:44.247Z,29.50
2022-07-25T14:01:36.941Z,29.90
2022-07-25T14:04:25.740Z,30.00
2022-07-25T14:07:15.392Z,29.80
2022-07-25T14:10:08.491Z,29.90
2022-07-25T14:12:57.158Z,29.90
2022-07-25T14:15:45.954Z,29.80
2022-07-25T14:18:34.433Z,29.50
2022-07-25T14:21:22.928Z,29.60
2022-07-25T14:24:11.729Z,29.70
2022-07-25T14:33:07.178Z,29.60
2022-07-25T14:35:55.718Z,29.50
2022-07-25T14:38:47.340Z,29.40
2022-07-25T14:41:35.851Z,29.20
2022-07-25T14:44:24.350Z,29.40
2022-07-25T14:47:13.078Z,29.30
2022-07-25T14:50:03.410Z,29.00
2022-07-25T14:52:51.930Z,28.70
2022-07-25T14:55:40.729Z,28.80
2022-07-25T14:58:29.289Z,28.90
2022-07-25T15:01:19.018Z,28.80
2022-07-25T15:04:07.752Z,28.30
2022-07-25T15:06:57.643Z,28.30
2022-07-25T15:09:46.075Z,28.40
2022-07-25T15:12:38.487Z,28.30
2022-07-25T15:15:27.292Z,28.60
2022-07-25T15:18:16.255Z,28.70
2022-07-25T15:21:05.069Z,28.70
2022-07-25T15:24:00.091Z,28.60
2022-07-25T15:26:48.622Z,28.70
2022-07-25T15:29:37.142Z,28.50
2022-07-25T15:32:25.630Z,28.40
2022-07-25T15:35:17.270Z,28.30
2022-07-25T15:38:05.854Z,28.20
2022-07-25T15:40:55.755Z,28.30
2022-07-25T15:43:44.302Z,28.30
2022-07-25T15:46:32.998Z,28.40
2022-07-25T15:49:23.895Z,28.40
2022-07-25T15:52:12.411Z,28.30
2022-07-25T15:55:01.099Z,28.40
2022-07-25T15:57:56.172Z,28.50
2022-07-25T16:00:45.078Z,28.40
2022-07-25T16:03:33.761Z,28.30
2022-07-25T16:06:22.852Z,28.40
2022-07-25T16:09:12.525Z,28.20
2022-07-25T16:12:01.546Z,28.20
2022-07-25T16:14:51.688Z,28.10
2022-07-25T16:17:44.077Z,27.90
2022-07-25T16:20:33.998Z,28.00
2022-07-25T16:23:24.310Z,27.90
2022-07-25T16:26:16.216Z,27.90
2022-07-25T16:29:06.187Z,27.90
2022-07-25T16:31:56.947Z,27.80
2022-07-25T16:34:46.288Z,27.90
2022-07-25T16:37:35.440Z,27.80
2022-07-25T16:40:28.677Z,28.00
2022-07-25T16:43:19.247Z,27.90
2022-07-25T16:46:07.835Z,27.80
2022-07-25T16:49:01.469Z,27.70
2022-07-25T16:51:50.121Z,27.70
2022-07-25T16:54:38.664Z,27.70
2022-07-25T16:57:27.136Z,27.70
2022-07-25T17:00:16.099Z,27.70
2022-07-25T17:03:04.716Z,27.60
2022-07-25T17:05:54.795Z,27.50
2022-07-25T17:08:46.842Z,27.40
2022-07-25T17:11:35.513Z,27.50
2022-07-25T17:14:27.884Z,27.40
2022-07-25T17:17:18.270Z,27.30
2022-07-25T17:20:07.882Z,27.30
2022-07-25T17:22:57.857Z,27.20
2022-07-25T17:25:50.482Z,27.30
2022-07-25T17:28:39.393Z,27.20
2022-07-25T17:31:28.187Z,27.10
2022-07-25T17:34:16.696Z,27.20
2022-07-25T17:37:06.923Z,27.10
2022-07-25T17:39:56.871Z,27.10
2022-07-25T17:42:47.424Z,27.10
2022-07-25T17:45:35.918Z,27.00
2022-07-25T17:48:24.643Z,27.00
2022-07-25T17:51:13.186Z,26.90
2022-07-25T17:54:01.708Z,26.80
2022-07-25T17:56:55.604Z,26.80
2022-07-25T17:59:44.172Z,26.80
2022-07-25T18:02:32.791Z,26.80
2022-07-25T18:05:21.353Z,26.70
2022-07-25T18:08:11.089Z,26.80
2022-07-25T18:10:59.829Z,26.70
2022-07-25T18:13:49.870Z,26.60
2022-07-25T18:16:38.367Z,26.60
2022-07-25T18:19:27.036Z,26.60
2022-07-25T18:22:16.509Z,26.60
2022-07-25T18:25:05.729Z,26.50
2022-07-25T18:27:54.655Z,26.40
2022-07-25T18:30:44.711Z,26.30
2022-07-25T18:33:33.666Z,26.40
2022-07-25T18:36:22.136Z,26.30
2022-07-25T18:39:10.698Z,26.20
2022-07-25T18:41:59.227Z,26.10
2022-07-25T18:44:47.721Z,26.10
2022-07-25T18:47:38.024Z,26.10
2022-07-25T18:50:26.738Z,25.90
2022-07-25T18:53:15.269Z,25.90
2022-07-25T18:56:05.705Z,25.80
2022-07-25T18:58:54.619Z,25.80
2022-07-25T19:01:43.296Z,25.70
2022-07-25T19:04:33.662Z,25.70
2022-07-25T19:07:22.180Z,25.70
2022-07-25T19:10:15.285Z,25.50
2022-07-25T19:13:04.100Z,25.50
2022-07-25T19:15:52.737Z,25.50
2022-07-25T19:18:41.885Z,25.50
2022-07-25T19:21:31.707Z,25.40
2022-07-25T19:24:20.284Z,25.30
2022-07-25T19:27:09.252Z,25.30
2022-07-25T19:29:57.820Z,25.30
2022-07-25T19:32:46.816Z,25.30
2022-07-25T19:35:36.697Z,25.20
2022-07-25T19:38:26.613Z,25.10
2022-07-25T19:41:15.095Z,25.00
2022-07-25T19:44:03.901Z,25.00
2022-07-25T19:46:54.316Z,25.00
2022-07-25T19:49:43.192Z,24.90
2022-07-25T19:52:31.733Z,24.90
2022-07-25T19:55:21.798Z,24.90
2022-07-25T19:58:10.552Z,24.90
2022-07-25T20:01:24.166Z,24.80
2022-07-25T20:04:13.054Z,24.70
2022-07-25T20:07:02.376Z,24.60
2022-07-25T20:09:50.957Z,24.50
2022-07-25T20:12:44.298Z,24.40
2022-07-25T20:15:32.887Z,24.40
2022-07-25T20:18:21.808Z,24.40
2022-07-25T20:21:11.957Z,24.30
2022-07-25T20:24:00.967Z,24.30
2022-07-25T20:26:49.516Z,24.20
2022-07-25T20:29:39.318Z,24.20
2022-07-25T20:32:27.979Z,24.30
2022-07-25T20:35:16.558Z,24.20
2022-07-25T20:38:09.407Z,24.20
2022-07-25T20:40:58.967Z,24.10
2022-07-25T20:43:47.566Z,24.00
2022-07-25T20:46:37.630Z,24.10
2022-07-25T20:49:26.173Z,23.90
2022-07-25T20:52:14.747Z,23.80
2022-07-25T20:55:07.064Z,23.80
2022-07-25T20:57:55.656Z,23.80
2022-07-25T21:00:44.714Z,23.80
2022-07-25T21:03:35.985Z,23.80
2022-07-25T21:06:27.588Z,23.70
2022-07-25T21:09:16.514Z,23.70
2022-07-25T21:12:05.416Z,23.60
2022-07-25T21:14:53.979Z,23.70
2022-07-25T21:17:42.695Z,23.60
2022-07-25T21:20:32.579Z,23.50
2022-07-25T21:23:21.529Z,23.40
2022-07-25T21:26:13.827Z,23.50
2022-07-25T21:29:03.145Z,23.30
2022-07-25T21:31:51.965Z,23.20
2022-07-25T21:34:43.937Z,23.20
2022-07-25T21:37:34.194Z,23.20
2022-07-25T21:40:23.047Z,23.10
2022-07-25T21:43:12.982Z,23.00
2022-07-25T21:46:02.377Z,23.00
2022-07-25T21:49:08.721Z,23.00
2022-07-25T21:51:58.676Z,22.80
2022-07-25T21:54:49.395Z,22.80
2022-07-25T21:57:38.626Z,22.80
2022-07-25T22:00:28.234Z,22.80
2022-07-25T22:03:16.949Z,22.80
2022-07-25T22:06:05.734Z,22.60
2022-07-25T22:08:54.625Z,22.60
2022-07-25T22:11:46.771Z,22.50
2022-07-25T22:14:37.157Z,22.60
2022-07-25T22:17:28.744Z,22.50
2022-07-25T22:20:38.056Z,22.40
2022-07-25T22:23:34.244Z,22.40
2022-07-25T22:26:29.180Z,22.40
2022-07-25T22:29:23.299Z,22.30
2022-07-25T22:32:13.983Z,22.40
2022-07-25T22:35:04.300Z,22.30
2022-07-25T22:37:56.434Z,22.20
2022-07-25T22:40:46.298Z,22.20
2022-07-25T22:43:57.868Z,22.20
2022-07-25T22:46:51.039Z,22.30
2022-07-25T22:49:40.703Z,22.20
2022-07-25T22:52:30.506Z,22.10
2022-07-25T22:55:19.955Z,22.10
2022-07-25T22:58:09.646Z,22.00
2022-07-25T23:00:58.564Z,22.00
2022-07-25T23:03:50.500Z,21.90
2022-07-25T23:06:39.701Z,22.00
2022-07-25T23:09:36.270Z,21.90
2022-07-25T23:12:25.406Z,21.90
2022-07-25T23:15:15.602Z,21.90
2022-07-25T23:18:04.367Z,21.90
2022-07-25T23:20:55.301Z,21.80
2022-07-25T23:23:44.284Z,21.70
2022-07-25T23:26:33.284Z,21.60
2022-07-25T23:29:21.809Z,21.70
2022-07-25T23:32:10.345Z,21.60
2022-07-25T23:34:59.571Z,21.60
2022-07-25T23:37:49.896Z,21.50
2022-07-25T23:40:38.963Z,21.40
2022-07-25T23:43:40.858Z,21.40
2022-07-25T23:46:38.168Z,21.50
2022-07-25T23:49:27.214Z,21.30
2022-07-25T23:52:15.971Z,21.30
2022-07-25T23:55:07.149Z,21.20
2022-07-25T23:57:56.370Z,21.30
